sensor_id;sensor_type;location;lat;lon;timestamp;pressure;altitude;pressure_sealevel;temperature;humidity
77159;BME280;66129;45.890;13.714;2023-03-12T00:01:35;100179.03;;;8.80;47.93
77159;BME280;66129;45.890;13.714;2023-03-12T00:04:02;100195.25;;;8.82;47.44
77159;BME280;66129;45.890;13.714;2023-03-12T00:06:28;100208.06;;;8.83;47.04
77159;BME280;66129;45.890;13.714;2023-03-12T00:08:53;100193.31;;;8.69;46.85
77159;BME280;66129;45.890;13.714;2023-03-12T00:11:19;100179.78;;;8.75;46.81
77159;BME280;66129;45.890;13.714;2023-03-12T00:13:52;100196.78;;;8.74;46.81
77159;BME280;66129;45.890;13.714;2023-03-12T00:16:18;100195.88;;;8.71;46.70
77159;BME280;66129;45.890;13.714;2023-03-12T00:18:47;100178.06;;;8.74;46.58
77159;BME280;66129;45.890;13.714;2023-03-12T00:21:13;100189.84;;;8.66;46.24
77159;BME280;66129;45.890;13.714;2023-03-12T00:23:39;100203.44;;;8.63;46.02
77159;BME280;66129;45.890;13.714;2023-03-12T00:26:07;100222.97;;;8.61;46.32
77159;BME280;66129;45.890;13.714;2023-03-12T00:28:33;100229.75;;;8.61;46.27
77159;BME280;66129;45.890;13.714;2023-03-12T00:30:59;100222.78;;;8.52;46.09
77159;BME280;66129;45.890;13.714;2023-03-12T00:33:25;100233.91;;;8.54;45.83
77159;BME280;66129;45.890;13.714;2023-03-12T00:35:51;100206.44;;;8.43;45.31
77159;BME280;66129;45.890;13.714;2023-03-12T00:38:17;100233.84;;;8.51;45.87
77159;BME280;66129;45.890;13.714;2023-03-12T00:40:43;100220.13;;;8.46;45.61
77159;BME280;66129;45.890;13.714;2023-03-12T00:43:09;100222.59;;;8.42;44.75
77159;BME280;66129;45.890;13.714;2023-03-12T00:45:35;100235.56;;;8.51;45.10
77159;BME280;66129;45.890;13.714;2023-03-12T00:48:00;100213.13;;;8.36;45.00
77159;BME280;66129;45.890;13.714;2023-03-12T00:50:26;100231.94;;;8.41;44.97
77159;BME280;66129;45.890;13.714;2023-03-12T00:52:51;100246.22;;;8.32;45.02
77159;BME280;66129;45.890;13.714;2023-03-12T00:55:17;100234.31;;;8.32;44.87
77159;BME280;66129;45.890;13.714;2023-03-12T00:57:42;100256.59;;;8.39;44.42
77159;BME280;66129;45.890;13.714;2023-03-12T01:00:10;100271.94;;;8.41;44.69
77159;BME280;66129;45.890;13.714;2023-03-12T01:02:39;100289.00;;;8.43;44.20
77159;BME280;66129;45.890;13.714;2023-03-12T01:05:06;100281.28;;;8.39;44.35
77159;BME280;66129;45.890;13.714;2023-03-12T01:07:33;100296.47;;;8.33;44.29
77159;BME280;66129;45.890;13.714;2023-03-12T01:09:59;100281.75;;;8.21;44.05
77159;BME280;66129;45.890;13.714;2023-03-12T01:12:24;100265.31;;;8.10;44.45
77159;BME280;66129;45.890;13.714;2023-03-12T01:14:50;100279.28;;;8.26;43.55
77159;BME280;66129;45.890;13.714;2023-03-12T01:17:15;100270.47;;;8.12;43.86
77159;BME280;66129;45.890;13.714;2023-03-12T01:19:41;100308.31;;;8.29;43.79
77159;BME280;66129;45.890;13.714;2023-03-12T01:22:06;100292.84;;;8.23;43.32
77159;BME280;66129;45.890;13.714;2023-03-12T01:24:32;100310.09;;;8.33;43.33
77159;BME280;66129;45.890;13.714;2023-03-12T01:26:57;100289.16;;;8.11;43.96
77159;BME280;66129;45.890;13.714;2023-03-12T01:29:23;100314.19;;;8.25;43.59
77159;BME280;66129;45.890;13.714;2023-03-12T01:31:48;100313.88;;;8.13;43.78
77159;BME280;66129;45.890;13.714;2023-03-12T01:34:14;100240.63;;;7.71;43.96
77159;BME280;66129;45.890;13.714;2023-03-12T01:36:40;100280.13;;;7.88;43.99
77159;BME280;66129;45.890;13.714;2023-03-12T01:39:05;100301.00;;;8.09;43.85
77159;BME280;66129;45.890;13.714;2023-03-12T01:41:32;100312.03;;;8.06;43.63
77159;BME280;66129;45.890;13.714;2023-03-12T01:43:58;100303.25;;;7.94;43.38
77159;BME280;66129;45.890;13.714;2023-03-12T01:52:23;100335.63;;;7.96;43.90
77159;BME280;66129;45.890;13.714;2023-03-12T01:55:14;100305.41;;;7.77;44.09
77159;BME280;66129;45.890;13.714;2023-03-12T01:57:47;100337.16;;;7.90;43.84
77159;BME280;66129;45.890;13.714;2023-03-12T02:00:17;100345.44;;;7.81;43.66
77159;BME280;66129;45.890;13.714;2023-03-12T02:02:44;100322.28;;;7.72;43.23
77159;BME280;66129;45.890;13.714;2023-03-12T02:05:15;100334.25;;;7.75;43.07
77159;BME280;66129;45.890;13.714;2023-03-12T02:07:43;100349.44;;;7.70;43.51
77159;BME280;66129;45.890;13.714;2023-03-12T02:10:10;100327.06;;;7.59;43.54
77159;BME280;66129;45.890;13.714;2023-03-12T02:12:36;100315.28;;;7.64;43.53
77159;BME280;66129;45.890;13.714;2023-03-12T02:15:02;100340.91;;;7.70;43.26
77159;BME280;66129;45.890;13.714;2023-03-12T02:17:28;100350.19;;;7.67;43.77
77159;BME280;66129;45.890;13.714;2023-03-12T02:20:10;100345.91;;;7.64;43.14
77159;BME280;66129;45.890;13.714;2023-03-12T02:22:40;100347.56;;;7.62;43.28
77159;BME280;66129;45.890;13.714;2023-03-12T02:25:38;100361.91;;;7.59;43.17
77159;BME280;66129;45.890;13.714;2023-03-12T02:28:07;100319.00;;;7.43;43.21
77159;BME280;66129;45.890;13.714;2023-03-12T02:30:34;100344.78;;;7.55;43.05
77159;BME280;66129;45.890;13.714;2023-03-12T02:33:05;100359.09;;;7.48;42.86
77159;BME280;66129;45.890;13.714;2023-03-12T02:35:31;100336.88;;;7.44;42.82
77159;BME280;66129;45.890;13.714;2023-03-12T02:37:57;100368.28;;;7.42;43.63
77159;BME280;66129;45.890;13.714;2023-03-12T02:40:39;100371.66;;;7.41;43.29
77159;BME280;66129;45.890;13.714;2023-03-12T02:43:08;100350.00;;;7.25;43.36
77159;BME280;66129;45.890;13.714;2023-03-12T02:45:36;100371.56;;;7.38;43.02
77159;BME280;66129;45.890;13.714;2023-03-12T02:48:03;100366.38;;;7.33;43.12
77159;BME280;66129;45.890;13.714;2023-03-12T02:50:28;100356.81;;;7.26;43.29
77159;BME280;66129;45.890;13.714;2023-03-12T02:52:54;100378.88;;;7.26;42.84
77159;BME280;66129;45.890;13.714;2023-03-12T02:55:19;100393.34;;;7.27;43.14
77159;BME280;66129;45.890;13.714;2023-03-12T02:57:45;100396.72;;;7.26;42.94
77159;BME280;66129;45.890;13.714;2023-03-12T03:00:11;100390.44;;;7.13;43.10
77159;BME280;66129;45.890;13.714;2023-03-12T03:02:39;100381.81;;;7.08;43.77
77159;BME280;66129;45.890;13.714;2023-03-12T03:05:05;100403.84;;;7.06;43.29
77159;BME280;66129;45.890;13.714;2023-03-12T03:07:31;100389.91;;;6.94;44.01
77159;BME280;66129;45.890;13.714;2023-03-12T03:09:56;100400.69;;;6.85;44.01
77159;BME280;66129;45.890;13.714;2023-03-12T03:12:31;100387.75;;;6.78;43.80
77159;BME280;66129;45.890;13.714;2023-03-12T03:14:57;100394.75;;;6.85;43.98
77159;BME280;66129;45.890;13.714;2023-03-12T03:17:23;100400.75;;;6.87;43.91
77159;BME280;66129;45.890;13.714;2023-03-12T03:19:52;100398.94;;;6.83;43.44
77159;BME280;66129;45.890;13.714;2023-03-12T03:22:19;100423.63;;;6.85;43.89
77159;BME280;66129;45.890;13.714;2023-03-12T03:24:45;100418.25;;;6.76;43.79
77159;BME280;66129;45.890;13.714;2023-03-12T03:27:12;100427.63;;;6.77;44.53
77159;BME280;66129;45.890;13.714;2023-03-12T03:29:37;100415.41;;;6.66;43.98
77159;BME280;66129;45.890;13.714;2023-03-12T03:32:03;100442.69;;;6.70;44.31
77159;BME280;66129;45.890;13.714;2023-03-12T03:34:30;100420.47;;;6.64;44.04
77159;BME280;66129;45.890;13.714;2023-03-12T03:36:55;100422.91;;;6.61;44.06
77159;BME280;66129;45.890;13.714;2023-03-12T03:39:20;100446.97;;;6.71;44.04
77159;BME280;66129;45.890;13.714;2023-03-12T03:41:46;100376.88;;;6.26;44.03
77159;BME280;66129;45.890;13.714;2023-03-12T03:44:12;100437.97;;;6.54;44.09
77159;BME280;66129;45.890;13.714;2023-03-12T03:46:38;100433.63;;;6.50;44.47
77159;BME280;66129;45.890;13.714;2023-03-12T03:49:04;100463.97;;;6.72;44.04
77159;BME280;66129;45.890;13.714;2023-03-12T03:51:30;100446.34;;;6.50;44.26
77159;BME280;66129;45.890;13.714;2023-03-12T03:53:57;100431.88;;;6.49;44.35
77159;BME280;66129;45.890;13.714;2023-03-12T03:56:24;100464.50;;;6.62;43.83
77159;BME280;66129;45.890;13.714;2023-03-12T03:58:50;100462.97;;;6.67;44.21
77159;BME280;66129;45.890;13.714;2023-03-12T04:01:16;100479.94;;;6.66;43.94
77159;BME280;66129;45.890;13.714;2023-03-12T04:03:41;100483.97;;;6.60;44.26
77159;BME280;66129;45.890;13.714;2023-03-12T04:06:07;100489.00;;;6.57;44.12
77159;BME280;66129;45.890;13.714;2023-03-12T04:08:34;100485.00;;;6.39;43.86
77159;BME280;66129;45.890;13.714;2023-03-12T04:11:10;100494.81;;;6.53;44.21
77159;BME280;66129;45.890;13.714;2023-03-12T04:13:36;100497.25;;;6.50;44.41
77159;BME280;66129;45.890;13.714;2023-03-12T04:16:02;100487.00;;;6.49;44.14
77159;BME280;66129;45.890;13.714;2023-03-12T04:18:28;100496.34;;;6.48;44.28
77159;BME280;66129;45.890;13.714;2023-03-12T04:20:53;100492.56;;;6.36;44.27
77159;BME280;66129;45.890;13.714;2023-03-12T04:23:19;100491.88;;;6.41;44.04
77159;BME280;66129;45.890;13.714;2023-03-12T04:25:44;100516.59;;;6.45;44.40
77159;BME280;66129;45.890;13.714;2023-03-12T04:28:10;100511.19;;;6.35;44.53
77159;BME280;66129;45.890;13.714;2023-03-12T04:30:35;100504.38;;;6.34;44.65
77159;BME280;66129;45.890;13.714;2023-03-12T04:33:03;100500.09;;;6.33;44.48
77159;BME280;66129;45.890;13.714;2023-03-12T04:35:29;100499.22;;;6.32;44.61
77159;BME280;66129;45.890;13.714;2023-03-12T04:37:54;100495.56;;;6.24;44.57
77159;BME280;66129;45.890;13.714;2023-03-12T04:40:20;100503.34;;;6.29;44.35
77159;BME280;66129;45.890;13.714;2023-03-12T04:42:46;100514.41;;;6.29;44.14
77159;BME280;66129;45.890;13.714;2023-03-12T04:45:12;100530.06;;;6.41;44.04
77159;BME280;66129;45.890;13.714;2023-03-12T04:47:38;100527.41;;;6.38;44.26
77159;BME280;66129;45.890;13.714;2023-03-12T04:50:03;100510.97;;;6.29;44.26
77159;BME280;66129;45.890;13.714;2023-03-12T04:52:29;100514.69;;;6.38;44.40
77159;BME280;66129;45.890;13.714;2023-03-12T04:54:54;100506.78;;;6.29;44.29
77159;BME280;66129;45.890;13.714;2023-03-12T04:57:20;100522.19;;;6.34;44.48
77159;BME280;66129;45.890;13.714;2023-03-12T04:59:46;100533.88;;;6.29;44.53
77159;BME280;66129;45.890;13.714;2023-03-12T05:02:12;100521.78;;;6.22;44.47
77159;BME280;66129;45.890;13.714;2023-03-12T05:04:37;100515.06;;;6.24;44.23
77159;BME280;66129;45.890;13.714;2023-03-12T05:07:03;100543.84;;;6.23;44.81
77159;BME280;66129;45.890;13.714;2023-03-12T05:09:28;100553.94;;;6.20;44.97
77159;BME280;66129;45.890;13.714;2023-03-12T05:11:54;100529.47;;;5.98;44.98
77159;BME280;66129;45.890;13.714;2023-03-12T05:14:19;100561.47;;;6.17;44.33
77159;BME280;66129;45.890;13.714;2023-03-12T05:16:45;100560.53;;;6.15;44.32
77159;BME280;66129;45.890;13.714;2023-03-12T05:19:10;100551.03;;;6.09;44.67
77159;BME280;66129;45.890;13.714;2023-03-12T05:21:36;100584.44;;;6.18;44.85
77159;BME280;66129;45.890;13.714;2023-03-12T05:24:03;100513.66;;;5.82;44.57
77159;BME280;66129;45.890;13.714;2023-03-12T05:26:31;100578.75;;;6.25;44.23
77159;BME280;66129;45.890;13.714;2023-03-12T05:28:58;100569.03;;;6.14;44.80
77159;BME280;66129;45.890;13.714;2023-03-12T05:31:23;100595.63;;;6.23;44.88
77159;BME280;66129;45.890;13.714;2023-03-12T05:33:49;100594.72;;;6.21;44.27
77159;BME280;66129;45.890;13.714;2023-03-12T05:36:16;100599.81;;;6.21;44.27
77159;BME280;66129;45.890;13.714;2023-03-12T05:38:42;100590.25;;;6.16;44.54
77159;BME280;66129;45.890;13.714;2023-03-12T05:41:09;100572.72;;;5.98;44.78
77159;BME280;66129;45.890;13.714;2023-03-12T05:43:41;100581.47;;;6.06;44.52
77159;BME280;66129;45.890;13.714;2023-03-12T05:46:08;100628.50;;;6.17;44.46
77159;BME280;66129;45.890;13.714;2023-03-12T05:48:34;100640.53;;;6.21;44.05
77159;BME280;66129;45.890;13.714;2023-03-12T05:50:59;100642.25;;;6.22;43.96
77159;BME280;66129;45.890;13.714;2023-03-12T05:53:25;100648.06;;;6.18;44.16
77159;BME280;66129;45.890;13.714;2023-03-12T05:55:50;100644.25;;;6.07;44.49
77159;BME280;66129;45.890;13.714;2023-03-12T05:58:16;100637.16;;;5.99;44.80
77159;BME280;66129;45.890;13.714;2023-03-12T06:00:42;100641.19;;;5.92;45.08
77159;BME280;66129;45.890;13.714;2023-03-12T06:03:09;100636.00;;;5.89;44.66
77159;BME280;66129;45.890;13.714;2023-03-12T06:05:35;100640.63;;;6.01;44.58
77159;BME280;66129;45.890;13.714;2023-03-12T06:08:01;100660.44;;;6.09;44.67
77159;BME280;66129;45.890;13.714;2023-03-12T06:10:27;100661.38;;;6.11;44.94
77159;BME280;66129;45.890;13.714;2023-03-12T06:12:53;100661.03;;;6.26;43.99
77159;BME280;66129;45.890;13.714;2023-03-12T06:15:18;100664.59;;;6.31;43.71
77159;BME280;66129;45.890;13.714;2023-03-12T06:17:44;100660.03;;;6.46;43.63
77159;BME280;66129;45.890;13.714;2023-03-12T06:20:10;100648.66;;;6.36;43.52
77159;BME280;66129;45.890;13.714;2023-03-12T06:22:36;100677.34;;;6.31;43.82
77159;BME280;66129;45.890;13.714;2023-03-12T06:25:01;100671.00;;;6.20;44.22
77159;BME280;66129;45.890;13.714;2023-03-12T06:27:27;100666.56;;;6.14;44.13
77159;BME280;66129;45.890;13.714;2023-03-12T06:29:52;100670.47;;;6.28;43.84
77159;BME280;66129;45.890;13.714;2023-03-12T06:32:18;100664.47;;;6.26;43.67
77159;BME280;66129;45.890;13.714;2023-03-12T06:34:44;100680.25;;;6.41;43.80
77159;BME280;66129;45.890;13.714;2023-03-12T06:37:10;100674.00;;;6.57;43.03
77159;BME280;66129;45.890;13.714;2023-03-12T06:39:36;100656.72;;;6.48;43.35
77159;BME280;66129;45.890;13.714;2023-03-12T06:42:02;100684.13;;;6.55;42.90
77159;BME280;66129;45.890;13.714;2023-03-12T06:44:28;100681.16;;;6.68;43.00
77159;BME280;66129;45.890;13.714;2023-03-12T06:46:53;100687.44;;;6.53;43.08
77159;BME280;66129;45.890;13.714;2023-03-12T06:49:19;100662.31;;;6.38;43.27
77159;BME280;66129;45.890;13.714;2023-03-12T06:51:45;100676.31;;;6.75;41.98
77159;BME280;66129;45.890;13.714;2023-03-12T06:54:10;100688.00;;;7.47;40.58
77159;BME280;66129;45.890;13.714;2023-03-12T06:56:36;100655.94;;;8.13;39.03
77159;BME280;66129;45.890;13.714;2023-03-12T06:59:02;100623.44;;;8.37;37.81
77159;BME280;66129;45.890;13.714;2023-03-12T07:01:28;100688.38;;;8.79;37.71
77159;BME280;66129;45.890;13.714;2023-03-12T07:03:53;100673.63;;;7.78;39.20
77159;BME280;66129;45.890;13.714;2023-03-12T07:06:23;100726.69;;;7.60;40.19
77159;BME280;66129;45.890;13.714;2023-03-12T07:08:49;100725.75;;;7.58;40.41
77159;BME280;66129;45.890;13.714;2023-03-12T07:11:15;100650.28;;;7.10;40.46
77159;BME280;66129;45.890;13.714;2023-03-12T07:13:50;100695.19;;;7.87;40.24
77159;BME280;66129;45.890;13.714;2023-03-12T07:16:16;100725.16;;;9.18;37.69
77159;BME280;66129;45.890;13.714;2023-03-12T07:18:42;100688.03;;;9.33;36.32
77159;BME280;66129;45.890;13.714;2023-03-12T07:21:07;100684.88;;;9.83;35.36
77159;BME280;66129;45.890;13.714;2023-03-12T07:23:47;100720.25;;;10.40;34.69
77159;BME280;66129;45.890;13.714;2023-03-12T07:26:22;100666.41;;;10.39;33.77
77159;BME280;66129;45.890;13.714;2023-03-12T07:28:51;100641.72;;;10.44;33.94
77159;BME280;66129;45.890;13.714;2023-03-12T07:31:16;100721.69;;;9.89;35.24
77159;BME280;66129;45.890;13.714;2023-03-12T07:33:42;100720.84;;;9.51;35.79
77159;BME280;66129;45.890;13.714;2023-03-12T07:36:08;100690.94;;;9.87;34.79
77159;BME280;66129;45.890;13.714;2023-03-12T07:38:33;100701.91;;;10.64;33.32
77159;BME280;66129;45.890;13.714;2023-03-12T07:40:59;100735.84;;;11.50;32.73
77159;BME280;66129;45.890;13.714;2023-03-12T07:43:25;100746.47;;;11.69;32.51
77159;BME280;66129;45.890;13.714;2023-03-12T07:45:50;100742.13;;;11.65;32.34
77159;BME280;66129;45.890;13.714;2023-03-12T07:48:16;100742.81;;;12.15;31.77
77159;BME280;66129;45.890;13.714;2023-03-12T07:50:44;100748.59;;;11.99;32.05
77159;BME280;66129;45.890;13.714;2023-03-12T07:53:10;100736.88;;;12.18;31.32
77159;BME280;66129;45.890;13.714;2023-03-12T07:55:35;100758.50;;;12.35;31.76
77159;BME280;66129;45.890;13.714;2023-03-12T07:58:01;100749.22;;;12.48;31.13
77159;BME280;66129;45.890;13.714;2023-03-12T08:00:27;100756.44;;;12.80;30.61
77159;BME280;66129;45.890;13.714;2023-03-12T08:02:53;100751.75;;;12.45;30.99
77159;BME280;66129;45.890;13.714;2023-03-12T08:05:19;100759.72;;;12.66;31.76
77159;BME280;66129;45.890;13.714;2023-03-12T08:07:49;100732.13;;;12.53;30.83
77159;BME280;66129;45.890;13.714;2023-03-12T08:10:14;100709.88;;;12.53;30.50
77159;BME280;66129;45.890;13.714;2023-03-12T08:12:40;100723.47;;;12.42;30.77
77159;BME280;66129;45.890;13.714;2023-03-12T08:15:06;100753.91;;;12.83;30.87
77159;BME280;66129;45.890;13.714;2023-03-12T08:17:38;100742.81;;;12.87;30.76
77159;BME280;66129;45.890;13.714;2023-03-12T08:20:04;100754.38;;;13.31;30.07
77159;BME280;66129;45.890;13.714;2023-03-12T08:22:33;100755.56;;;13.73;29.87
77159;BME280;66129;45.890;13.714;2023-03-12T08:24:59;100697.09;;;13.62;29.57
77159;BME280;66129;45.890;13.714;2023-03-12T08:27:28;100757.69;;;14.42;28.34
77159;BME280;66129;45.890;13.714;2023-03-12T08:29:56;100767.84;;;14.09;28.77
77159;BME280;66129;45.890;13.714;2023-03-12T08:32:21;100711.59;;;13.45;29.76
77159;BME280;66129;45.890;13.714;2023-03-12T08:34:47;100714.84;;;13.23;29.56
77159;BME280;66129;45.890;13.714;2023-03-12T08:37:12;100754.41;;;13.35;29.92
77159;BME280;66129;45.890;13.714;2023-03-12T08:39:38;100748.50;;;13.44;29.28
77159;BME280;66129;45.890;13.714;2023-03-12T08:42:04;100780.72;;;14.10;29.11
77159;BME280;66129;45.890;13.714;2023-03-12T08:44:30;100747.81;;;13.70;28.87
77159;BME280;66129;45.890;13.714;2023-03-12T08:46:56;100791.94;;;14.17;29.02
77159;BME280;66129;45.890;13.714;2023-03-12T08:49:21;100798.03;;;14.23;28.61
77159;BME280;66129;45.890;13.714;2023-03-12T08:51:48;100794.69;;;14.49;28.35
77159;BME280;66129;45.890;13.714;2023-03-12T08:54:16;100787.84;;;14.57;28.09
77159;BME280;66129;45.890;13.714;2023-03-12T08:56:42;100771.59;;;14.84;27.85
77159;BME280;66129;45.890;13.714;2023-03-12T08:59:09;100741.47;;;14.84;27.23
77159;BME280;66129;45.890;13.714;2023-03-12T09:01:35;100771.56;;;14.79;27.37
77159;BME280;66129;45.890;13.714;2023-03-12T09:04:02;100794.91;;;15.18;27.25
77159;BME280;66129;45.890;13.714;2023-03-12T09:06:27;100775.97;;;15.12;27.13
77159;BME280;66129;45.890;13.714;2023-03-12T09:08:53;100757.91;;;15.37;26.93
77159;BME280;66129;45.890;13.714;2023-03-12T09:11:18;100784.59;;;15.24;26.91
77159;BME280;66129;45.890;13.714;2023-03-12T09:13:44;100824.22;;;16.10;26.31
77159;BME280;66129;45.890;13.714;2023-03-12T09:16:10;100798.34;;;15.98;26.60
77159;BME280;66129;45.890;13.714;2023-03-12T09:18:44;100812.16;;;15.97;26.06
77159;BME280;66129;45.890;13.714;2023-03-12T09:21:10;100805.19;;;16.41;25.88
77159;BME280;66129;45.890;13.714;2023-03-12T09:23:35;100817.97;;;16.75;24.62
77159;BME280;66129;45.890;13.714;2023-03-12T09:26:01;100783.50;;;16.69;25.60
77159;BME280;66129;45.890;13.714;2023-03-12T09:28:26;100788.63;;;16.79;25.03
77159;BME280;66129;45.890;13.714;2023-03-12T09:30:51;100807.97;;;17.62;24.25
77159;BME280;66129;45.890;13.714;2023-03-12T09:33:17;100856.09;;;17.91;23.72
77159;BME280;66129;45.890;13.714;2023-03-12T09:35:43;100849.06;;;16.72;24.59
77159;BME280;66129;45.890;13.714;2023-03-12T09:38:12;100792.31;;;16.02;25.34
77159;BME280;66129;45.890;13.714;2023-03-12T09:40:38;100813.91;;;15.59;25.70
77159;BME280;66129;45.890;13.714;2023-03-12T09:43:17;100806.97;;;15.97;25.44
77159;BME280;66129;45.890;13.714;2023-03-12T09:45:46;100818.16;;;15.24;26.57
77159;BME280;66129;45.890;13.714;2023-03-12T09:48:32;100793.22;;;15.44;26.02
77159;BME280;66129;45.890;13.714;2023-03-12T09:51:05;100846.63;;;15.93;26.82
77159;BME280;66129;45.890;13.714;2023-03-12T09:53:41;100839.75;;;15.55;26.71
77159;BME280;66129;45.890;13.714;2023-03-12T09:56:13;100830.13;;;15.04;27.11
77159;BME280;66129;45.890;13.714;2023-03-12T09:58:40;100794.81;;;14.79;27.62
77159;BME280;66129;45.890;13.714;2023-03-12T10:06:19;100813.91;;;15.65;26.22
77159;BME280;66129;45.890;13.714;2023-03-12T10:27:37;100865.59;;;16.10;25.52
77159;BME280;66129;45.890;13.714;2023-03-12T10:30:13;100881.97;;;15.88;25.84
77159;BME280;66129;45.890;13.714;2023-03-12T10:32:53;100866.47;;;15.58;26.12
77159;BME280;66129;45.890;13.714;2023-03-12T10:35:23;100885.41;;;15.66;26.24
77159;BME280;66129;45.890;13.714;2023-03-12T10:37:52;100883.69;;;15.77;26.70
77159;BME280;66129;45.890;13.714;2023-03-12T10:40:30;100885.41;;;15.93;26.77
77159;BME280;66129;45.890;13.714;2023-03-12T10:42:58;100869.91;;;16.11;25.99
77159;BME280;66129;45.890;13.714;2023-03-12T10:48:23;100878.47;;;16.50;25.76
77159;BME280;66129;45.890;13.714;2023-03-12T10:51:04;100874.13;;;16.66;25.88
77159;BME280;66129;45.890;13.714;2023-03-12T10:53:34;100874.94;;;16.76;25.86
77159;BME280;66129;45.890;13.714;2023-03-12T10:56:04;100862.84;;;16.80;25.84
77159;BME280;66129;45.890;13.714;2023-03-12T10:58:41;100853.41;;;16.60;25.13
77159;BME280;66129;45.890;13.714;2023-03-12T11:01:22;100866.19;;;17.03;26.21
77159;BME280;66129;45.890;13.714;2023-03-12T11:03:49;100849.81;;;16.99;25.29
77159;BME280;66129;45.890;13.714;2023-03-12T11:06:34;100855.97;;;16.72;25.22
77159;BME280;66129;45.890;13.714;2023-03-12T11:09:06;100872.25;;;16.97;26.30
77159;BME280;66129;45.890;13.714;2023-03-12T11:11:39;100847.97;;;17.21;25.61
77159;BME280;66129;45.890;13.714;2023-03-12T11:14:17;100852.19;;;17.40;25.23
77159;BME280;66129;45.890;13.714;2023-03-12T11:16:44;100868.34;;;17.78;25.03
77159;BME280;66129;45.890;13.714;2023-03-12T11:19:25;100836.44;;;17.68;25.32
77159;BME280;66129;45.890;13.714;2023-03-12T11:22:02;100862.31;;;17.73;24.84
77159;BME280;66129;45.890;13.714;2023-03-12T11:24:27;100856.38;;;17.57;25.28
77159;BME280;66129;45.890;13.714;2023-03-12T11:29:30;100854.13;;;18.17;24.06
77159;BME280;66129;45.890;13.714;2023-03-12T11:34:41;100853.19;;;18.27;24.03
77159;BME280;66129;45.890;13.714;2023-03-12T11:40:32;100863.13;;;17.84;24.39
77159;BME280;66129;45.890;13.714;2023-03-12T11:51:35;100867.78;;;17.28;24.77
77159;BME280;66129;45.890;13.714;2023-03-12T11:56:55;100864.25;;;17.42;25.64
77159;BME280;66129;45.890;13.714;2023-03-12T12:18:04;100872.38;;;18.07;24.63
77159;BME280;66129;45.890;13.714;2023-03-12T12:26:05;100862.81;;;18.93;23.79
77159;BME280;66129;45.890;13.714;2023-03-12T12:31:55;100834.91;;;19.08;24.01
77159;BME280;66129;45.890;13.714;2023-03-12T12:37:21;100887.72;;;19.09;24.55
77159;BME280;66129;45.890;13.714;2023-03-12T12:39:59;100867.66;;;18.51;24.54
77159;BME280;66129;45.890;13.714;2023-03-12T12:42:31;100886.66;;;18.54;25.14
77159;BME280;66129;45.890;13.714;2023-03-12T12:44:59;100882.53;;;18.38;23.82
77159;BME280;66129;45.890;13.714;2023-03-12T12:47:41;100809.13;;;18.26;24.54
77159;BME280;66129;45.890;13.714;2023-03-12T12:50:16;100889.09;;;18.68;23.50
77159;BME280;66129;45.890;13.714;2023-03-12T12:52:49;100852.13;;;18.48;24.07
77159;BME280;66129;45.890;13.714;2023-03-12T12:55:39;100883.91;;;17.73;25.07
77159;BME280;66129;45.890;13.714;2023-03-12T12:58:14;100880.25;;;17.99;24.90
77159;BME280;66129;45.890;13.714;2023-03-12T13:00:46;100855.69;;;17.33;26.34
77159;BME280;66129;45.890;13.714;2023-03-12T13:03:23;100892.84;;;17.33;26.23
77159;BME280;66129;45.890;13.714;2023-03-12T13:06:03;100830.72;;;17.15;27.77
77159;BME280;66129;45.890;13.714;2023-03-12T13:08:35;100886.78;;;17.37;27.03
77159;BME280;66129;45.890;13.714;2023-03-12T13:16:36;100820.09;;;17.56;26.72
77159;BME280;66129;45.890;13.714;2023-03-12T13:22:02;100881.16;;;17.92;25.26
77159;BME280;66129;45.890;13.714;2023-03-12T13:24:30;100906.34;;;17.82;25.50
77159;BME280;66129;45.890;13.714;2023-03-12T13:27:21;100909.16;;;17.44;25.29
77159;BME280;66129;45.890;13.714;2023-03-12T13:29:47;100822.16;;;17.00;25.85
77159;BME280;66129;45.890;13.714;2023-03-12T13:45:32;100926.78;;;15.94;28.21
77159;BME280;66129;45.890;13.714;2023-03-12T13:48:03;100925.91;;;15.97;27.59
77159;BME280;66129;45.890;13.714;2023-03-12T13:50:40;100922.47;;;15.95;27.83
77159;BME280;66129;45.890;13.714;2023-03-12T13:53:15;100925.03;;;15.69;27.96
77159;BME280;66129;45.890;13.714;2023-03-12T13:55:44;100911.28;;;15.73;30.58
77159;BME280;66129;45.890;13.714;2023-03-12T13:58:17;100924.22;;;16.11;27.91
77159;BME280;66129;45.890;13.714;2023-03-12T14:01:01;100893.16;;;15.99;27.73
77159;BME280;66129;45.890;13.714;2023-03-12T14:03:34;100912.16;;;16.37;27.68
77159;BME280;66129;45.890;13.714;2023-03-12T14:17:22;100851.81;;;15.66;29.59
77159;BME280;66129;45.890;13.714;2023-03-12T14:19:58;100828.56;;;15.70;29.05
77159;BME280;66129;45.890;13.714;2023-03-12T14:22:28;100868.19;;;15.56;29.45
77159;BME280;66129;45.890;13.714;2023-03-12T14:25:06;100900.06;;;16.00;29.40
77159;BME280;66129;45.890;13.714;2023-03-12T14:27:37;100836.31;;;15.84;29.28
77159;BME280;66129;45.890;13.714;2023-03-12T14:32:37;100865.59;;;16.02;29.01
77159;BME280;66129;45.890;13.714;2023-03-12T14:35:25;100874.22;;;16.12;28.69
77159;BME280;66129;45.890;13.714;2023-03-12T14:38:03;100889.72;;;16.12;28.71
77159;BME280;66129;45.890;13.714;2023-03-12T14:40:39;100876.81;;;15.95;29.77
77159;BME280;66129;45.890;13.714;2023-03-12T14:43:25;100842.34;;;15.59;29.71
77159;BME280;66129;45.890;13.714;2023-03-12T14:45:59;100876.78;;;16.10;29.69
77159;BME280;66129;45.890;13.714;2023-03-12T14:48:33;100890.56;;;15.96;28.92
77159;BME280;66129;45.890;13.714;2023-03-12T14:51:01;100875.06;;;16.11;30.52